This is the latest recevied weather packets stored in our database for station/object WX5RP. If no packets are shown the sender has not sent any weather packets the latest 10 day(s).
| Time | Temp. | Humidity | Pressure | Rain* | Wind** | Luminosity | Snow |
|---|---|---|---|---|---|---|---|
| 1787824817 | 11.67° C | 72% | 1019.5 hPa | 0 mm | - | 0 W/m² | - |
| 1787824217 | 11.67° C | 72% | 1019.5 hPa | 0 mm | - | 0 W/m² | - |
| 1787823616 | 11.67° C | 72% | 1019.6 hPa | 0 mm | - | 0 W/m² | - |
| 1787823016 | 11.67° C | 71% | 1019.6 hPa | 0 mm | - | 0 W/m² | - |
| 1787822416 | 12.22° C | 69% | 1019.4 hPa | 0 mm | - | 0 W/m² | - |
| 1787821816 | 12.22° C | 70% | 1019.8 hPa | 0 mm | - | 0 W/m² | - |
| 1787821217 | 12.22° C | 69% | 1019.8 hPa | 0 mm | - | 0 W/m² | - |
| 1787820616 | 12.78° C | 67% | 1019.6 hPa | 0 mm | - | 0 W/m² | - |
| 1787820016 | 12.78° C | 67% | 1019.8 hPa | 0 mm | - | 0 W/m² | - |
| 1787819416 | 12.78° C | 63% | 1019.7 hPa | 0 mm | - | 0 W/m² | - |
| 1787818818 | 12.78° C | 64% | 1019.7 hPa | 0 mm | - | 0 W/m² | - |
| 1787818216 | 12.22° C | 66% | 1020 hPa | 0 mm | - | 0 W/m² | - |
| 1787817617 | 12.78° C | 63% | 1020 hPa | 0 mm | - | 0 W/m² | - |
| 1787817016 | 12.78° C | 62% | 1019.8 hPa | 0 mm | - | 0 W/m² | - |
| 1787816416 | 13.33° C | 58% | 1019.9 hPa | 0 mm | - | 0 W/m² | - |
| 1787815816 | 12.78° C | 60% | 1019.6 hPa | 0 mm | - | 0 W/m² | - |
| 1787815216 | 12.78° C | 63% | 1019.8 hPa | 0 mm | - | 0 W/m² | - |
| 1787814616 | 12.78° C | 63% | 1019.8 hPa | 0 mm | - | 0 W/m² | - |
| 1787814016 | 12.78° C | 61% | 1019.8 hPa | 0 mm | - | 0 W/m² | - |
| 1787813415 | 12.22° C | 62% | 1019.6 hPa | 0 mm | - | 0 W/m² | - |
| 1787812816 | 12.22° C | 63% | 1019.6 hPa | 0 mm | - | 0 W/m² | - |
| 1787812216 | 12.22° C | 62% | 1019.6 hPa | 0 mm | - | 0 W/m² | - |
| 1787811615 | 12.78° C | 59% | 1019.3 hPa | 0 mm | - | 0 W/m² | - |
| 1787811015 | 13.89° C | 55% | 1019.7 hPa | 0 mm | - | 0 W/m² | - |
| 1787810415 | 14.44° C | 53% | 1019.7 hPa | 0 mm | - | 0 W/m² | - |
* Rain latest hour (hover to see other rain measurements)
** Current wind speed in m/s (hover to see current wind gust speed)